sensor_id;sensor_type;location;lat;lon;timestamp;P1;durP1;ratioP1;P2;durP2;ratioP2
65418;SDS011;52027;50.658;14.004;2022-07-03T00:00:09;2.63;;;1.88;;
65418;SDS011;52027;50.658;14.004;2022-07-03T00:02:35;2.53;;;1.60;;
65418;SDS011;52027;50.658;14.004;2022-07-03T00:05:00;2.53;;;1.70;;
65418;SDS011;52027;50.658;14.004;2022-07-03T00:07:25;2.47;;;1.83;;
65418;SDS011;52027;50.658;14.004;2022-07-03T00:09:51;2.53;;;1.80;;
65418;SDS011;52027;50.658;14.004;2022-07-03T00:12:16;2.70;;;1.90;;
65418;SDS011;52027;50.658;14.004;2022-07-03T00:14:42;2.47;;;1.70;;
65418;SDS011;52027;50.658;14.004;2022-07-03T00:17:07;2.75;;;1.80;;
65418;SDS011;52027;50.658;14.004;2022-07-03T00:19:32;3.50;;;1.80;;
65418;SDS011;52027;50.658;14.004;2022-07-03T00:22:02;2.50;;;1.80;;
65418;SDS011;52027;50.658;14.004;2022-07-03T00:27:10;2.80;;;1.95;;
65418;SDS011;52027;50.658;14.004;2022-07-03T00:29:37;2.30;;;1.80;;
65418;SDS011;52027;50.658;14.004;2022-07-03T00:32:06;2.83;;;1.80;;
65418;SDS011;52027;50.658;14.004;2022-07-03T00:34:35;2.63;;;1.75;;
65418;SDS011;52027;50.658;14.004;2022-07-03T00:37:01;2.55;;;1.80;;
65418;SDS011;52027;50.658;14.004;2022-07-03T00:39:29;3.25;;;1.80;;
65418;SDS011;52027;50.658;14.004;2022-07-03T00:42:01;2.60;;;1.88;;
65418;SDS011;52027;50.658;14.004;2022-07-03T00:44:28;2.78;;;1.80;;
65418;SDS011;52027;50.658;14.004;2022-07-03T00:46:55;2.95;;;1.80;;
65418;SDS011;52027;50.658;14.004;2022-07-03T00:49:24;2.92;;;1.70;;
65418;SDS011;52027;50.658;14.004;2022-07-03T00:51:53;2.75;;;1.85;;
65418;SDS011;52027;50.658;14.004;2022-07-03T00:54:21;2.90;;;1.90;;
65418;SDS011;52027;50.658;14.004;2022-07-03T00:56:51;3.10;;;1.90;;
65418;SDS011;52027;50.658;14.004;2022-07-03T00:59:19;2.50;;;1.80;;
65418;SDS011;52027;50.658;14.004;2022-07-03T01:01:45;2.97;;;2.00;;
65418;SDS011;52027;50.658;14.004;2022-07-03T01:04:25;2.55;;;1.77;;
65418;SDS011;52027;50.658;14.004;2022-07-03T01:07:30;2.42;;;1.77;;
65418;SDS011;52027;50.658;14.004;2022-07-03T01:10:12;2.88;;;1.65;;
65418;SDS011;52027;50.658;14.004;2022-07-03T01:13:01;2.65;;;1.80;;
65418;SDS011;52027;50.658;14.004;2022-07-03T01:18:49;3.33;;;1.90;;
65418;SDS011;52027;50.658;14.004;2022-07-03T01:26:41;3.25;;;2.00;;
65418;SDS011;52027;50.658;14.004;2022-07-03T01:29:13;3.00;;;1.90;;
65418;SDS011;52027;50.658;14.004;2022-07-03T01:31:42;3.13;;;1.80;;
65418;SDS011;52027;50.658;14.004;2022-07-03T01:34:12;2.53;;;1.80;;
65418;SDS011;52027;50.658;14.004;2022-07-03T01:36:40;2.80;;;2.00;;
65418;SDS011;52027;50.658;14.004;2022-07-03T01:39:08;2.83;;;1.80;;
65418;SDS011;52027;50.658;14.004;2022-07-03T01:41:35;3.72;;;1.90;;
65418;SDS011;52027;50.658;14.004;2022-07-03T01:44:01;2.88;;;2.00;;
65418;SDS011;52027;50.658;14.004;2022-07-03T01:46:28;2.58;;;2.00;;
65418;SDS011;52027;50.658;14.004;2022-07-03T01:48:57;2.80;;;2.08;;
65418;SDS011;52027;50.658;14.004;2022-07-03T01:51:23;3.03;;;1.90;;
65418;SDS011;52027;50.658;14.004;2022-07-03T01:53:51;2.90;;;1.88;;
65418;SDS011;52027;50.658;14.004;2022-07-03T01:56:18;2.58;;;1.80;;
65418;SDS011;52027;50.658;14.004;2022-07-03T01:58:45;3.00;;;1.90;;
65418;SDS011;52027;50.658;14.004;2022-07-03T02:01:21;2.80;;;1.90;;
65418;SDS011;52027;50.658;14.004;2022-07-03T02:03:55;2.53;;;1.80;;
65418;SDS011;52027;50.658;14.004;2022-07-03T02:06:47;2.72;;;1.80;;
65418;SDS011;52027;50.658;14.004;2022-07-03T02:09:36;2.60;;;1.90;;
65418;SDS011;52027;50.658;14.004;2022-07-03T02:12:11;2.92;;;1.90;;
65418;SDS011;52027;50.658;14.004;2022-07-03T02:14:38;2.78;;;1.70;;
65418;SDS011;52027;50.658;14.004;2022-07-03T02:22:27;2.50;;;1.80;;
65418;SDS011;52027;50.658;14.004;2022-07-03T02:25:18;2.65;;;1.90;;
65418;SDS011;52027;50.658;14.004;2022-07-03T02:28:06;2.85;;;2.00;;
65418;SDS011;52027;50.658;14.004;2022-07-03T02:30:59;2.78;;;1.83;;
65418;SDS011;52027;50.658;14.004;2022-07-03T02:33:29;3.08;;;2.00;;
65418;SDS011;52027;50.658;14.004;2022-07-03T02:35:55;2.40;;;1.80;;
65418;SDS011;52027;50.658;14.004;2022-07-03T02:38:22;4.20;;;2.00;;
65418;SDS011;52027;50.658;14.004;2022-07-03T02:43:42;2.90;;;1.88;;
65418;SDS011;52027;50.658;14.004;2022-07-03T02:51:46;4.28;;;1.90;;
65418;SDS011;52027;50.658;14.004;2022-07-03T02:54:23;2.67;;;1.80;;
65418;SDS011;52027;50.658;14.004;2022-07-03T03:01:57;2.67;;;2.05;;
65418;SDS011;52027;50.658;14.004;2022-07-03T03:04:32;2.72;;;2.00;;
65418;SDS011;52027;50.658;14.004;2022-07-03T03:07:08;4.10;;;2.17;;
65418;SDS011;52027;50.658;14.004;2022-07-03T03:09:43;3.03;;;1.90;;
65418;SDS011;52027;50.658;14.004;2022-07-03T03:12:10;2.55;;;1.90;;
65418;SDS011;52027;50.658;14.004;2022-07-03T03:14:41;3.60;;;1.90;;
65418;SDS011;52027;50.658;14.004;2022-07-03T03:17:19;2.88;;;2.10;;
65418;SDS011;52027;50.658;14.004;2022-07-03T03:19:55;3.08;;;2.00;;
65418;SDS011;52027;50.658;14.004;2022-07-03T03:25:08;2.75;;;1.98;;
65418;SDS011;52027;50.658;14.004;2022-07-03T03:27:34;2.63;;;1.90;;
65418;SDS011;52027;50.658;14.004;2022-07-03T03:29:59;2.40;;;1.70;;
65418;SDS011;52027;50.658;14.004;2022-07-03T03:32:25;2.90;;;1.90;;
65418;SDS011;52027;50.658;14.004;2022-07-03T03:34:51;2.33;;;1.80;;
65418;SDS011;52027;50.658;14.004;2022-07-03T03:37:16;2.58;;;1.95;;
65418;SDS011;52027;50.658;14.004;2022-07-03T03:39:42;2.78;;;1.90;;
65418;SDS011;52027;50.658;14.004;2022-07-03T03:42:08;2.90;;;2.00;;
65418;SDS011;52027;50.658;14.004;2022-07-03T03:44:33;2.65;;;1.95;;
65418;SDS011;52027;50.658;14.004;2022-07-03T03:46:59;2.67;;;1.90;;
65418;SDS011;52027;50.658;14.004;2022-07-03T03:49:24;3.58;;;2.20;;
65418;SDS011;52027;50.658;14.004;2022-07-03T03:51:50;2.65;;;1.90;;
65418;SDS011;52027;50.658;14.004;2022-07-03T03:54:16;3.28;;;2.00;;
65418;SDS011;52027;50.658;14.004;2022-07-03T03:56:41;5.25;;;2.00;;
65418;SDS011;52027;50.658;14.004;2022-07-03T03:59:06;2.35;;;1.80;;
65418;SDS011;52027;50.658;14.004;2022-07-03T04:01:32;2.75;;;2.00;;
65418;SDS011;52027;50.658;14.004;2022-07-03T04:03:57;3.65;;;1.85;;
65418;SDS011;52027;50.658;14.004;2022-07-03T04:06:24;2.65;;;1.90;;
65418;SDS011;52027;50.658;14.004;2022-07-03T04:08:50;2.50;;;1.80;;
65418;SDS011;52027;50.658;14.004;2022-07-03T04:11:15;2.92;;;2.00;;
65418;SDS011;52027;50.658;14.004;2022-07-03T04:13:40;3.10;;;1.80;;
65418;SDS011;52027;50.658;14.004;2022-07-03T04:16:06;3.17;;;2.10;;
65418;SDS011;52027;50.658;14.004;2022-07-03T04:18:31;2.90;;;2.00;;
65418;SDS011;52027;50.658;14.004;2022-07-03T04:20:56;2.90;;;1.83;;
65418;SDS011;52027;50.658;14.004;2022-07-03T04:23:22;3.80;;;2.00;;
65418;SDS011;52027;50.658;14.004;2022-07-03T04:25:47;2.50;;;1.80;;
65418;SDS011;52027;50.658;14.004;2022-07-03T04:28:12;3.20;;;2.00;;
65418;SDS011;52027;50.658;14.004;2022-07-03T04:30:38;2.70;;;2.00;;
65418;SDS011;52027;50.658;14.004;2022-07-03T04:33:04;2.80;;;1.95;;
65418;SDS011;52027;50.658;14.004;2022-07-03T04:35:29;2.42;;;1.90;;
65418;SDS011;52027;50.658;14.004;2022-07-03T04:37:55;2.92;;;2.00;;
65418;SDS011;52027;50.658;14.004;2022-07-03T04:40:20;2.95;;;2.03;;
65418;SDS011;52027;50.658;14.004;2022-07-03T04:42:45;3.75;;;2.00;;
65418;SDS011;52027;50.658;14.004;2022-07-03T04:45:11;2.60;;;2.10;;
65418;SDS011;52027;50.658;14.004;2022-07-03T04:47:36;2.47;;;1.90;;
65418;SDS011;52027;50.658;14.004;2022-07-03T04:50:02;2.75;;;1.80;;
65418;SDS011;52027;50.658;14.004;2022-07-03T04:52:28;4.25;;;1.90;;
65418;SDS011;52027;50.658;14.004;2022-07-03T04:54:53;3.13;;;1.95;;
65418;SDS011;52027;50.658;14.004;2022-07-03T04:57:18;3.55;;;2.03;;
65418;SDS011;52027;50.658;14.004;2022-07-03T04:59:44;3.45;;;2.00;;
65418;SDS011;52027;50.658;14.004;2022-07-03T05:02:09;2.75;;;2.00;;
65418;SDS011;52027;50.658;14.004;2022-07-03T05:04:34;2.50;;;1.90;;
65418;SDS011;52027;50.658;14.004;2022-07-03T05:07:01;2.80;;;2.00;;
65418;SDS011;52027;50.658;14.004;2022-07-03T05:09:26;4.00;;;2.10;;
65418;SDS011;52027;50.658;14.004;2022-07-03T05:11:52;4.43;;;2.00;;
65418;SDS011;52027;50.658;14.004;2022-07-03T05:14:17;3.20;;;1.90;;
65418;SDS011;52027;50.658;14.004;2022-07-03T05:16:42;3.17;;;2.10;;
65418;SDS011;52027;50.658;14.004;2022-07-03T05:19:08;2.65;;;1.90;;
65418;SDS011;52027;50.658;14.004;2022-07-03T05:21:33;3.20;;;2.10;;
65418;SDS011;52027;50.658;14.004;2022-07-03T05:23:58;2.80;;;2.10;;
65418;SDS011;52027;50.658;14.004;2022-07-03T05:26:24;2.75;;;1.90;;
65418;SDS011;52027;50.658;14.004;2022-07-03T05:28:49;3.00;;;2.00;;
65418;SDS011;52027;50.658;14.004;2022-07-03T05:31:15;3.08;;;2.30;;
65418;SDS011;52027;50.658;14.004;2022-07-03T05:33:40;3.58;;;2.10;;
65418;SDS011;52027;50.658;14.004;2022-07-03T05:36:06;3.47;;;2.05;;
65418;SDS011;52027;50.658;14.004;2022-07-03T05:38:31;3.38;;;2.15;;
65418;SDS011;52027;50.658;14.004;2022-07-03T05:41:16;3.40;;;1.90;;
65418;SDS011;52027;50.658;14.004;2022-07-03T05:43:41;3.00;;;1.90;;
65418;SDS011;52027;50.658;14.004;2022-07-03T05:46:07;2.80;;;1.90;;
65418;SDS011;52027;50.658;14.004;2022-07-03T05:48:32;2.53;;;1.73;;
65418;SDS011;52027;50.658;14.004;2022-07-03T05:50:58;3.95;;;2.35;;
65418;SDS011;52027;50.658;14.004;2022-07-03T05:53:23;2.95;;;2.00;;
65418;SDS011;52027;50.658;14.004;2022-07-03T05:55:49;2.70;;;2.00;;
65418;SDS011;52027;50.658;14.004;2022-07-03T05:58:14;2.80;;;1.90;;
65418;SDS011;52027;50.658;14.004;2022-07-03T06:00:40;2.75;;;1.95;;
65418;SDS011;52027;50.658;14.004;2022-07-03T06:03:05;3.20;;;1.85;;
65418;SDS011;52027;50.658;14.004;2022-07-03T06:05:31;2.80;;;1.90;;
65418;SDS011;52027;50.658;14.004;2022-07-03T06:07:57;2.97;;;1.98;;
65418;SDS011;52027;50.658;14.004;2022-07-03T06:10:23;2.40;;;1.80;;
65418;SDS011;52027;50.658;14.004;2022-07-03T06:12:48;3.53;;;2.10;;
65418;SDS011;52027;50.658;14.004;2022-07-03T06:15:14;2.53;;;1.90;;
65418;SDS011;52027;50.658;14.004;2022-07-03T06:17:39;3.45;;;1.90;;
65418;SDS011;52027;50.658;14.004;2022-07-03T06:20:05;3.65;;;1.95;;
65418;SDS011;52027;50.658;14.004;2022-07-03T06:22:31;2.50;;;1.85;;
65418;SDS011;52027;50.658;14.004;2022-07-03T06:24:57;2.83;;;1.95;;
65418;SDS011;52027;50.658;14.004;2022-07-03T06:27:22;3.42;;;2.08;;
65418;SDS011;52027;50.658;14.004;2022-07-03T06:29:48;2.63;;;1.83;;
65418;SDS011;52027;50.658;14.004;2022-07-03T06:32:17;2.63;;;1.98;;
65418;SDS011;52027;50.658;14.004;2022-07-03T06:34:42;2.90;;;1.80;;
65418;SDS011;52027;50.658;14.004;2022-07-03T06:37:08;3.05;;;1.85;;
65418;SDS011;52027;50.658;14.004;2022-07-03T06:39:34;3.20;;;1.90;;
65418;SDS011;52027;50.658;14.004;2022-07-03T06:41:59;2.53;;;1.80;;
65418;SDS011;52027;50.658;14.004;2022-07-03T06:44:25;2.53;;;1.83;;
65418;SDS011;52027;50.658;14.004;2022-07-03T06:46:50;2.83;;;1.90;;
65418;SDS011;52027;50.658;14.004;2022-07-03T06:49:15;2.47;;;1.80;;
65418;SDS011;52027;50.658;14.004;2022-07-03T06:51:41;2.45;;;1.75;;
65418;SDS011;52027;50.658;14.004;2022-07-03T06:54:06;2.22;;;1.73;;
65418;SDS011;52027;50.658;14.004;2022-07-03T06:56:31;2.50;;;1.85;;
65418;SDS011;52027;50.658;14.004;2022-07-03T06:58:57;3.78;;;1.70;;
65418;SDS011;52027;50.658;14.004;2022-07-03T07:01:22;2.70;;;1.80;;
65418;SDS011;52027;50.658;14.004;2022-07-03T07:03:48;3.95;;;2.00;;
65418;SDS011;52027;50.658;14.004;2022-07-03T07:06:13;2.78;;;2.00;;
65418;SDS011;52027;50.658;14.004;2022-07-03T07:08:38;2.80;;;2.00;;
65418;SDS011;52027;50.658;14.004;2022-07-03T07:11:03;2.60;;;1.80;;
65418;SDS011;52027;50.658;14.004;2022-07-03T07:13:29;2.42;;;1.67;;
65418;SDS011;52027;50.658;14.004;2022-07-03T07:15:54;3.08;;;1.90;;
65418;SDS011;52027;50.658;14.004;2022-07-03T07:18:20;2.50;;;1.80;;
65418;SDS011;52027;50.658;14.004;2022-07-03T07:20:45;3.22;;;1.95;;
65418;SDS011;52027;50.658;14.004;2022-07-03T07:23:10;2.50;;;1.83;;
65418;SDS011;52027;50.658;14.004;2022-07-03T07:25:36;2.55;;;1.75;;
65418;SDS011;52027;50.658;14.004;2022-07-03T07:28:01;2.50;;;1.73;;
65418;SDS011;52027;50.658;14.004;2022-07-03T07:30:27;2.40;;;1.70;;
65418;SDS011;52027;50.658;14.004;2022-07-03T07:32:52;2.80;;;1.70;;
65418;SDS011;52027;50.658;14.004;2022-07-03T07:35:18;2.58;;;1.80;;
65418;SDS011;52027;50.658;14.004;2022-07-03T07:37:43;2.83;;;1.83;;
65418;SDS011;52027;50.658;14.004;2022-07-03T07:40:09;2.67;;;1.83;;
65418;SDS011;52027;50.658;14.004;2022-07-03T07:42:35;2.20;;;1.65;;
65418;SDS011;52027;50.658;14.004;2022-07-03T07:45:01;2.45;;;1.70;;
65418;SDS011;52027;50.658;14.004;2022-07-03T07:47:26;2.42;;;1.80;;
65418;SDS011;52027;50.658;14.004;2022-07-03T07:49:51;2.47;;;1.70;;
65418;SDS011;52027;50.658;14.004;2022-07-03T07:52:17;2.40;;;1.60;;
65418;SDS011;52027;50.658;14.004;2022-07-03T07:54:42;2.28;;;1.60;;
65418;SDS011;52027;50.658;14.004;2022-07-03T07:57:07;2.85;;;1.67;;
65418;SDS011;52027;50.658;14.004;2022-07-03T07:59:33;3.42;;;1.60;;
65418;SDS011;52027;50.658;14.004;2022-07-03T08:01:58;3.13;;;1.73;;
65418;SDS011;52027;50.658;14.004;2022-07-03T08:04:42;2.47;;;1.70;;
65418;SDS011;52027;50.658;14.004;2022-07-03T08:07:26;2.63;;;1.80;;
65418;SDS011;52027;50.658;14.004;2022-07-03T08:09:51;2.35;;;1.65;;
65418;SDS011;52027;50.658;14.004;2022-07-03T08:12:18;2.28;;;1.63;;
65418;SDS011;52027;50.658;14.004;2022-07-03T08:14:44;2.42;;;1.70;;
65418;SDS011;52027;50.658;14.004;2022-07-03T08:17:09;2.35;;;1.63;;
65418;SDS011;52027;50.658;14.004;2022-07-03T08:19:35;2.55;;;1.70;;
65418;SDS011;52027;50.658;14.004;2022-07-03T08:22:00;2.30;;;1.60;;
65418;SDS011;52027;50.658;14.004;2022-07-03T08:24:26;2.33;;;1.60;;
65418;SDS011;52027;50.658;14.004;2022-07-03T08:26:52;2.30;;;1.50;;
65418;SDS011;52027;50.658;14.004;2022-07-03T08:29:17;2.05;;;1.48;;
65418;SDS011;52027;50.658;14.004;2022-07-03T08:31:42;2.22;;;1.60;;
65418;SDS011;52027;50.658;14.004;2022-07-03T08:34:08;2.45;;;1.63;;
65418;SDS011;52027;50.658;14.004;2022-07-03T08:36:37;2.40;;;1.60;;
65418;SDS011;52027;50.658;14.004;2022-07-03T08:39:02;2.42;;;1.60;;
65418;SDS011;52027;50.658;14.004;2022-07-03T08:41:28;2.55;;;1.70;;
65418;SDS011;52027;50.658;14.004;2022-07-03T08:43:54;2.40;;;1.60;;
65418;SDS011;52027;50.658;14.004;2022-07-03T08:46:20;2.30;;;1.63;;
65418;SDS011;52027;50.658;14.004;2022-07-03T08:48:45;2.20;;;1.60;;
65418;SDS011;52027;50.658;14.004;2022-07-03T08:51:12;2.75;;;1.60;;
65418;SDS011;52027;50.658;14.004;2022-07-03T08:53:39;2.20;;;1.55;;
65418;SDS011;52027;50.658;14.004;2022-07-03T08:56:04;2.15;;;1.42;;
65418;SDS011;52027;50.658;14.004;2022-07-03T08:58:31;2.78;;;1.80;;
65418;SDS011;52027;50.658;14.004;2022-07-03T09:00:57;2.83;;;1.67;;
65418;SDS011;52027;50.658;14.004;2022-07-03T09:03:23;2.63;;;1.60;;
65418;SDS011;52027;50.658;14.004;2022-07-03T09:05:50;2.50;;;1.77;;
65418;SDS011;52027;50.658;14.004;2022-07-03T09:08:15;2.58;;;1.80;;
65418;SDS011;52027;50.658;14.004;2022-07-03T09:10:43;2.47;;;1.67;;
65418;SDS011;52027;50.658;14.004;2022-07-03T09:13:10;2.58;;;1.70;;
65418;SDS011;52027;50.658;14.004;2022-07-03T09:15:36;2.00;;;1.55;;
65418;SDS011;52027;50.658;14.004;2022-07-03T09:18:05;2.78;;;1.80;;
65418;SDS011;52027;50.658;14.004;2022-07-03T09:20:32;2.17;;;1.60;;
65418;SDS011;52027;50.658;14.004;2022-07-03T09:23:09;2.28;;;1.60;;
65418;SDS011;52027;50.658;14.004;2022-07-03T09:28:21;2.20;;;1.50;;
65418;SDS011;52027;50.658;14.004;2022-07-03T09:31:09;2.10;;;1.52;;
65418;SDS011;52027;50.658;14.004;2022-07-03T09:33:51;2.55;;;1.55;;
65418;SDS011;52027;50.658;14.004;2022-07-03T09:36:16;2.17;;;1.60;;
65418;SDS011;52027;50.658;14.004;2022-07-03T09:38:45;2.25;;;1.60;;
65418;SDS011;52027;50.658;14.004;2022-07-03T09:41:11;2.10;;;1.65;;
65418;SDS011;52027;50.658;14.004;2022-07-03T09:43:36;2.30;;;1.60;;
65418;SDS011;52027;50.658;14.004;2022-07-03T09:46:07;2.13;;;1.60;;
65418;SDS011;52027;50.658;14.004;2022-07-03T09:48:33;2.20;;;1.60;;
65418;SDS011;52027;50.658;14.004;2022-07-03T09:51:10;2.00;;;1.50;;
65418;SDS011;52027;50.658;14.004;2022-07-03T09:53:43;2.22;;;1.60;;
65418;SDS011;52027;50.658;14.004;2022-07-03T09:56:11;1.92;;;1.40;;
65418;SDS011;52027;50.658;14.004;2022-07-03T09:58:37;2.00;;;1.50;;
65418;SDS011;52027;50.658;14.004;2022-07-03T10:01:21;2.20;;;1.70;;
65418;SDS011;52027;50.658;14.004;2022-07-03T10:03:47;2.20;;;1.58;;
65418;SDS011;52027;50.658;14.004;2022-07-03T10:06:13;2.25;;;1.70;;
65418;SDS011;52027;50.658;14.004;2022-07-03T10:08:38;2.47;;;1.70;;
65418;SDS011;52027;50.658;14.004;2022-07-03T10:11:06;2.83;;;1.60;;
65418;SDS011;52027;50.658;14.004;2022-07-03T10:13:32;2.60;;;1.63;;
65418;SDS011;52027;50.658;14.004;2022-07-03T10:15:59;2.55;;;1.70;;
65418;SDS011;52027;50.658;14.004;2022-07-03T10:18:29;2.17;;;1.60;;
65418;SDS011;52027;50.658;14.004;2022-07-03T10:20:57;2.20;;;1.58;;
65418;SDS011;52027;50.658;14.004;2022-07-03T10:23:24;2.75;;;1.55;;
65418;SDS011;52027;50.658;14.004;2022-07-03T10:25:50;3.15;;;1.50;;
65418;SDS011;52027;50.658;14.004;2022-07-03T10:28:17;2.20;;;1.67;;
65418;SDS011;52027;50.658;14.004;2022-07-03T10:30:44;2.10;;;1.60;;
65418;SDS011;52027;50.658;14.004;2022-07-03T10:33:10;2.40;;;1.60;;
65418;SDS011;52027;50.658;14.004;2022-07-03T10:35:37;2.20;;;1.63;;
65418;SDS011;52027;50.658;14.004;2022-07-03T10:38:11;2.00;;;1.45;;
65418;SDS011;52027;50.658;14.004;2022-07-03T10:43:45;2.35;;;1.75;;
65418;SDS011;52027;50.658;14.004;2022-07-03T10:46:30;3.03;;;1.70;;
65418;SDS011;52027;50.658;14.004;2022-07-03T10:49:06;2.53;;;1.67;;
65418;SDS011;52027;50.658;14.004;2022-07-03T10:54:16;2.63;;;1.65;;
65418;SDS011;52027;50.658;14.004;2022-07-03T11:05:14;1.90;;;1.60;;
65418;SDS011;52027;50.658;14.004;2022-07-03T11:15:49;2.22;;;1.55;;
65418;SDS011;52027;50.658;14.004;2022-07-03T11:25:58;2.00;;;1.60;;
65418;SDS011;52027;50.658;14.004;2022-07-03T11:36:22;2.20;;;1.60;;
65418;SDS011;52027;50.658;14.004;2022-07-03T11:41:26;2.08;;;1.60;;
65418;SDS011;52027;50.658;14.004;2022-07-03T11:43:53;1.80;;;1.40;;
65418;SDS011;52027;50.658;14.004;2022-07-03T11:46:28;2.10;;;1.60;;
65418;SDS011;52027;50.658;14.004;2022-07-03T11:49:05;2.47;;;1.60;;
65418;SDS011;52027;50.658;14.004;2022-07-03T11:51:31;2.65;;;1.50;;
65418;SDS011;52027;50.658;14.004;2022-07-03T11:53:57;2.35;;;1.60;;
65418;SDS011;52027;50.658;14.004;2022-07-03T11:56:23;2.05;;;1.50;;
65418;SDS011;52027;50.658;14.004;2022-07-03T11:58:49;2.20;;;1.60;;
65418;SDS011;52027;50.658;14.004;2022-07-03T12:03:54;2.00;;;1.50;;
65418;SDS011;52027;50.658;14.004;2022-07-03T12:09:01;1.90;;;1.50;;
65418;SDS011;52027;50.658;14.004;2022-07-03T12:11:26;2.10;;;1.50;;
65418;SDS011;52027;50.658;14.004;2022-07-03T12:13:52;2.17;;;1.40;;
65418;SDS011;52027;50.658;14.004;2022-07-03T12:16:18;2.40;;;1.80;;
65418;SDS011;52027;50.658;14.004;2022-07-03T12:18:52;4.07;;;1.42;;
65418;SDS011;52027;50.658;14.004;2022-07-03T12:21:20;2.20;;;1.50;;
65418;SDS011;52027;50.658;14.004;2022-07-03T12:23:48;1.90;;;1.50;;
65418;SDS011;52027;50.658;14.004;2022-07-03T12:26:29;2.25;;;1.70;;
65418;SDS011;52027;50.658;14.004;2022-07-03T12:28:59;2.28;;;1.65;;
65418;SDS011;52027;50.658;14.004;2022-07-03T12:31:26;2.90;;;1.70;;
65418;SDS011;52027;50.658;14.004;2022-07-03T12:33:53;1.80;;;1.40;;
65418;SDS011;52027;50.658;14.004;2022-07-03T12:36:19;2.42;;;1.50;;
65418;SDS011;52027;50.658;14.004;2022-07-03T12:38:48;2.75;;;1.60;;
65418;SDS011;52027;50.658;14.004;2022-07-03T12:41:16;2.00;;;1.50;;
65418;SDS011;52027;50.658;14.004;2022-07-03T12:43:42;2.22;;;1.60;;
65418;SDS011;52027;50.658;14.004;2022-07-03T12:48:54;2.22;;;1.60;;
65418;SDS011;52027;50.658;14.004;2022-07-03T12:56:36;1.85;;;1.40;;
65418;SDS011;52027;50.658;14.004;2022-07-03T12:59:02;2.10;;;1.60;;
65418;SDS011;52027;50.658;14.004;2022-07-03T13:01:43;2.10;;;1.60;;
65418;SDS011;52027;50.658;14.004;2022-07-03T13:04:33;2.28;;;1.70;;
65418;SDS011;52027;50.658;14.004;2022-07-03T13:07:00;2.60;;;1.65;;
65418;SDS011;52027;50.658;14.004;2022-07-03T13:09:30;2.30;;;1.70;;
65418;SDS011;52027;50.658;14.004;2022-07-03T13:11:55;2.25;;;1.60;;
65418;SDS011;52027;50.658;14.004;2022-07-03T13:14:21;2.00;;;1.58;;
65418;SDS011;52027;50.658;14.004;2022-07-03T13:16:47;2.50;;;1.50;;
65418;SDS011;52027;50.658;14.004;2022-07-03T13:19:18;2.85;;;1.70;;
65418;SDS011;52027;50.658;14.004;2022-07-03T13:21:45;2.35;;;1.60;;
65418;SDS011;52027;50.658;14.004;2022-07-03T13:24:12;3.42;;;1.60;;
65418;SDS011;52027;50.658;14.004;2022-07-03T13:26:39;2.05;;;1.58;;
65418;SDS011;52027;50.658;14.004;2022-07-03T13:29:05;2.00;;;1.70;;
65418;SDS011;52027;50.658;14.004;2022-07-03T13:31:31;2.65;;;1.80;;
65418;SDS011;52027;50.658;14.004;2022-07-03T13:33:57;2.08;;;1.50;;
65418;SDS011;52027;50.658;14.004;2022-07-03T13:36:24;2.05;;;1.48;;
65418;SDS011;52027;50.658;14.004;2022-07-03T13:38:50;2.00;;;1.50;;
65418;SDS011;52027;50.658;14.004;2022-07-03T13:41:15;2.80;;;1.70;;
65418;SDS011;52027;50.658;14.004;2022-07-03T13:43:41;2.28;;;1.50;;
65418;SDS011;52027;50.658;14.004;2022-07-03T13:46:07;2.10;;;1.50;;
65418;SDS011;52027;50.658;14.004;2022-07-03T13:48:32;2.00;;;1.50;;
65418;SDS011;52027;50.658;14.004;2022-07-03T13:50:57;2.50;;;1.70;;
65418;SDS011;52027;50.658;14.004;2022-07-03T13:53:23;2.20;;;1.50;;
65418;SDS011;52027;50.658;14.004;2022-07-03T13:55:49;2.20;;;1.55;;
65418;SDS011;52027;50.658;14.004;2022-07-03T13:58:15;1.90;;;1.50;;
65418;SDS011;52027;50.658;14.004;2022-07-03T14:00:41;2.20;;;1.70;;
65418;SDS011;52027;50.658;14.004;2022-07-03T14:03:06;2.50;;;1.60;;
65418;SDS011;52027;50.658;14.004;2022-07-03T14:05:32;2.38;;;1.50;;
65418;SDS011;52027;50.658;14.004;2022-07-03T14:07:57;2.60;;;1.67;;
65418;SDS011;52027;50.658;14.004;2022-07-03T14:10:22;1.92;;;1.52;;
65418;SDS011;52027;50.658;14.004;2022-07-03T14:12:50;2.00;;;1.50;;
65418;SDS011;52027;50.658;14.004;2022-07-03T14:15:16;2.33;;;1.60;;
65418;SDS011;52027;50.658;14.004;2022-07-03T14:17:41;2.40;;;1.58;;
65418;SDS011;52027;50.658;14.004;2022-07-03T14:20:08;2.20;;;1.50;;
65418;SDS011;52027;50.658;14.004;2022-07-03T14:22:34;2.10;;;1.45;;
65418;SDS011;52027;50.658;14.004;2022-07-03T14:24:59;2.05;;;1.50;;
65418;SDS011;52027;50.658;14.004;2022-07-03T14:27:25;1.98;;;1.50;;
65418;SDS011;52027;50.658;14.004;2022-07-03T14:30:09;2.40;;;1.60;;
65418;SDS011;52027;50.658;14.004;2022-07-03T14:32:53;2.13;;;1.50;;
65418;SDS011;52027;50.658;14.004;2022-07-03T14:35:18;2.42;;;1.67;;
65418;SDS011;52027;50.658;14.004;2022-07-03T14:37:44;2.08;;;1.60;;
65418;SDS011;52027;50.658;14.004;2022-07-03T14:40:09;1.70;;;1.40;;
65418;SDS011;52027;50.658;14.004;2022-07-03T14:42:35;2.00;;;1.50;;
65418;SDS011;52027;50.658;14.004;2022-07-03T14:45:01;1.83;;;1.42;;
65418;SDS011;52027;50.658;14.004;2022-07-03T14:47:26;2.30;;;1.60;;
65418;SDS011;52027;50.658;14.004;2022-07-03T14:49:53;2.40;;;1.60;;
65418;SDS011;52027;50.658;14.004;2022-07-03T14:52:18;1.70;;;1.30;;
65418;SDS011;52027;50.658;14.004;2022-07-03T14:54:44;2.00;;;1.42;;
65418;SDS011;52027;50.658;14.004;2022-07-03T14:57:18;1.90;;;1.50;;
65418;SDS011;52027;50.658;14.004;2022-07-03T14:59:51;2.17;;;;;
65418;SDS011;52027;50.658;14.004;2022-07-03T15:02:55;1.95;;;1.48;;
65418;SDS011;52027;50.658;14.004;2022-07-03T15:05:28;2.10;;;1.50;;
65418;SDS011;52027;50.658;14.004;2022-07-03T15:08:14;2.00;;;1.40;;
65418;SDS011;52027;50.658;14.004;2022-07-03T15:10:46;2.30;;;1.58;;
65418;SDS011;52027;50.658;14.004;2022-07-03T15:13:11;2.00;;;1.60;;
65418;SDS011;52027;50.658;14.004;2022-07-03T15:15:39;1.95;;;1.40;;
65418;SDS011;52027;50.658;14.004;2022-07-03T15:18:05;1.83;;;1.40;;
65418;SDS011;52027;50.658;14.004;2022-07-03T15:20:32;2.00;;;1.45;;
65418;SDS011;52027;50.658;14.004;2022-07-03T15:23:00;2.10;;;1.50;;
65418;SDS011;52027;50.658;14.004;2022-07-03T15:25:28;2.25;;;1.65;;
65418;SDS011;52027;50.658;14.004;2022-07-03T15:27:57;1.92;;;1.50;;
65418;SDS011;52027;50.658;14.004;2022-07-03T15:30:23;2.10;;;1.50;;
65418;SDS011;52027;50.658;14.004;2022-07-03T15:32:53;2.08;;;1.60;;
65418;SDS011;52027;50.658;14.004;2022-07-03T15:35:21;2.05;;;1.50;;
65418;SDS011;52027;50.658;14.004;2022-07-03T15:40:52;2.00;;;1.50;;
65418;SDS011;52027;50.658;14.004;2022-07-03T16:00:16;2.20;;;1.70;;
65418;SDS011;52027;50.658;14.004;2022-07-03T16:03:02;2.67;;;1.65;;
65418;SDS011;52027;50.658;14.004;2022-07-03T16:05:36;4.43;;;1.70;;
65418;SDS011;52027;50.658;14.004;2022-07-03T16:08:04;2.25;;;1.60;;
65418;SDS011;52027;50.658;14.004;2022-07-03T16:10:31;2.20;;;1.70;;
65418;SDS011;52027;50.658;14.004;2022-07-03T16:12:58;2.65;;;1.67;;
65418;SDS011;52027;50.658;14.004;2022-07-03T16:15:26;2.50;;;1.67;;
65418;SDS011;52027;50.658;14.004;2022-07-03T16:17:54;3.08;;;1.60;;
65418;SDS011;52027;50.658;14.004;2022-07-03T16:20:23;3.65;;;1.80;;
65418;SDS011;52027;50.658;14.004;2022-07-03T16:22:52;2.35;;;1.77;;
65418;SDS011;52027;50.658;14.004;2022-07-03T16:25:20;2.20;;;1.77;;
65418;SDS011;52027;50.658;14.004;2022-07-03T16:27:47;2.58;;;1.80;;
65418;SDS011;52027;50.658;14.004;2022-07-03T16:30:12;2.90;;;1.70;;